Flight Track Log - Related Links

Times and Time Zones

All times are in EST time to prevent confusion due to time zone crossing. See the FIN666 flight status page for this flight to view local times or setup timezone preferences in your user account.

Time Position Orientation Groundspeed Altitude Reporting Facility
EST Latitude Longitude Course Direction KTS MPH feet Rate Location/Type
Tue 07:26:00 AM 55.8420 13.1192 49° Northeast  Level Estimated
Tue 07:27:00 AM 55.9164 13.2747 50° Northeast  Level Estimated
Tue 07:28:00 AM 55.9905 13.4309 50° Northeast  Level Estimated
Tue 07:29:00 AM 56.0644 13.5877 50° Northeast  Level Estimated
Tue 07:30:00 AM 56.1381 13.7451 50° Northeast  Level Estimated
Tue 07:31:00 AM 56.2116 13.9031 50° Northeast  Level Estimated
Tue 07:32:00 AM 56.2850 14.0617 50° Northeast  Level Estimated
Tue 07:33:00 AM 56.3581 14.2208 50° Northeast  Level Estimated
Tue 07:34:00 AM 56.4310 14.3807 50° Northeast  Level Estimated
Tue 07:35:00 AM 56.5037 14.5411 51° Northeast  Level Estimated
Tue 07:36:00 AM 56.5783 14.7069 51° Northeast  Level Estimated
Tue 07:37:00 AM 56.6527 14.8733 51° Northeast  Level Estimated
Tue 07:38:00 AM 56.7269 15.0404 51° Northeast  Level Estimated
Tue 07:39:00 AM 56.8009 15.2082 51° Northeast  Level Estimated
Tue 07:40:00 AM 56.8746 15.3766 51° Northeast  Level Estimated
Tue 07:41:00 AM 56.9481 15.5457 51° Northeast  Level Estimated
Tue 07:42:00 AM 57.0214 15.7154 52° Northeast  Level Estimated
Tue 07:43:00 AM 57.0945 15.8858 52° Northeast  Level Estimated
Tue 07:44:00 AM 57.1673 16.0569 52° Northeast  Level Estimated
Tue 07:45:00 AM 57.2388 16.2262 52° Northeast  Level Estimated
Tue 07:46:00 AM 57.3101 16.3961 52° Northeast  Level Estimated
Tue 07:47:00 AM 57.3812 16.5667 52° Northeast  Level Estimated
Tue 07:48:00 AM 57.4520 16.7380 52° Northeast  Level Estimated
Tue 07:49:00 AM 57.5226 16.9099 53° Northeast  Level Estimated
Tue 07:50:00 AM 57.5930 17.0825 53° Northeast  Level Estimated
Tue 07:51:00 AM 57.6631 17.2557 53° Northeast  Level Estimated
Tue 07:52:00 AM 57.7330 17.4296 53° Northeast  Level Estimated
Tue 07:53:00 AM 57.8027 17.6042 53° Northeast  Level Estimated
Tue 07:54:00 AM 57.8721 17.7795 53° Northeast  Level Estimated
Tue 07:55:00 AM 57.9413 17.9554 53° Northeast  Level Estimated
Tue 07:56:00 AM 58.0102 18.1320 54° Northeast  Level Estimated
Tue 07:57:00 AM 58.0789 18.3093 54° Northeast  Level Estimated
Tue 07:58:00 AM 58.1474 18.4873 54° Northeast  Level Estimated
Tue 07:59:00 AM 58.2155 18.6660 54° Northeast  Level Estimated
Tue 08:00:00 AM 58.2835 18.8453 54° Northeast  Level Estimated
Tue 08:01:00 AM 58.3512 19.0254 54° Northeast  Level Estimated
Tue 08:02:00 AM 58.4186 19.2061 54° Northeast  Level Estimated
Tue 08:03:00 AM 58.4858 19.3875 55° Northeast  Level Estimated
Tue 08:04:00 AM 58.5527 19.5696 55° Northeast  Level Estimated
Tue 08:05:00 AM 58.6194 19.7524 55° Northeast  Level Estimated
Tue 08:06:00 AM 58.6858 19.9359 55° Northeast  Level Estimated
Tue 08:07:00 AM 58.7519 20.1201 55° Northeast  Level Estimated
Tue 08:08:00 AM 58.8178 20.3051 55° Northeast  Level Estimated
Tue 08:09:00 AM 58.8834 20.4907 56° Northeast  Level Estimated
Tue 08:10:00 AM 58.9488 20.6770 56° Northeast  Level Estimated
Tue 08:11:00 AM 59.0139 20.8640 56° Northeast  Level Estimated
Tue 08:12:00 AM 59.0787 21.0517 56° Northeast  Level Estimated
Tue 08:13:00 AM 59.1432 21.2402 56° Northeast  Level Estimated
Tue 08:14:00 AM 59.2075 21.4293 56° Northeast  Level Estimated
Tue 08:15:00 AM 59.2715 21.6192 57° Northeast  Level Estimated
Tue 08:16:00 AM 59.3352 21.8097 57° Northeast  Level Estimated
Tue 08:17:00 AM 59.3986 22.0010 57° Northeast  Level Estimated
Tue 08:18:00 AM 59.4617 22.1930 57° Northeast  Level Estimated
Tue 08:19:00 AM 59.5246 22.3858 57° Northeast  Level Estimated
Tue 08:20:00 AM 59.5872 22.5792 57° Northeast  Level Estimated
Tue 08:21:00 AM 59.6495 22.7734 58° Northeast  Level Estimated
Tue 08:22:00 AM 59.7115 22.9682 58° Northeast  Level Estimated
Tue 08:23:00 AM 59.7732 23.1638 58° Northeast  Level Estimated
Tue 08:24:00 AM 59.8346 23.3602 58° Northeast  Level Estimated
Tue 08:25:00 AM 59.8958 23.5572 58° Northeast  Level Estimated
Tue 08:26:00 AM 59.9566 23.7550 58° Northeast  Level Estimated
Tue 08:27:00 AM 60.0172 23.9535 59° Northeast  Level Estimated
Tue 08:28:00 AM 60.0774 24.1527 59° Northeast  Level Estimated
Tue 08:29:00 AM 60.1373 24.3526 59° Northeast  Level Estimated
Tue 08:30:00 AM 60.1970 24.5533 59° Northeast  Level Estimated
Tue 08:31:00 AM 60.2563 24.7547 59° Northeast  Level Estimated
Tue 08:32:00 AM 60.3153 24.9569 59° Northeast  Level Estimated
Tue 08:33:00 AM 60.3172 24.9633 60° Northeast  Level Estimated
Tue 08:34:00 AM 60.3172 24.9633 37° Northeast  Level Estimated
Tue 08:35:00 AM 60.3172 24.9633 37° Northeast  Level Estimated
Tue 08:36:00 AM 60.3172 24.9633 37° Northeast  Level Estimated
Tue 08:37:00 AM 60.3172 24.9633 37° Northeast  Level Estimated
Tue 08:38:00 AM 60.3172 24.9633 37° Northeast  Level Estimated
Tue 08:39:00 AM 60.3172 24.9633 37° Northeast  Level Estimated
Tue 08:40:00 AM 60.3172 24.9633 37° Northeast  Level Estimated
Tue 08:41:00 AM 60.3172 24.9633 37° Northeast  Level Estimated
Tue 08:42:00 AM 60.3172 24.9633 37° Northeast  Level Estimated
Tue 08:43:00 AM 60.3172 24.9633 37° Northeast  Level Estimated
Tue 08:44:00 AM 60.3172 24.9633 37° Northeast  Level Estimated
Tue 08:45:00 AM 60.3172 24.9633 37° Northeast  Level Estimated
Tue 08:46:00 AM 60.3172 24.9633 37° Northeast  Level Estimated

Login

Don't have an account? Register now (free) for customized features, flight alerts, and more!